Time;durP1;ratioP1;P1;durP2;ratioP2;P2;SDS_P1;SDS_P2;PMS_P1;PMS_P2;Temp;Humidity;BMP_temperature;BMP_pressure;BME280_temperature;BME280_humidity;BME280_pressure;Samples;Min_cycle;Max_cycle;Signal;HPM_P1;HPM_P2
2022/08/22 00:02:29;;;;;;;5.95;3.30;;;17.00;99.90;;;;;;5016141;28;20057;-80
2022/08/22 00:05:09;;;;;;;8.13;3.08;;;17.00;99.90;;;;;;5016346;28;20056;-80
2022/08/22 00:07:50;;;;;;;6.15;2.95;;;17.00;99.90;;;;;;5032433;28;20052;-80
2022/08/22 00:10:37;;;;;;;6.35;3.15;;;17.00;99.90;;;;;;5016047;28;20490;-80
2022/08/22 00:13:12;;;;;;;5.32;2.70;;;17.00;99.90;;;;;;5032389;28;20038;-80
2022/08/22 00:15:46;;;;;;;7.45;3.10;;;17.00;99.90;;;;;;5031974;28;20116;-80
2022/08/22 00:18:28;;;;;;;5.85;3.20;;;17.10;99.90;;;;;;5032424;28;20045;-80
2022/08/22 00:21:26;;;;;;;6.65;3.08;;;17.10;99.90;;;;;;5015691;28;20081;-80
2022/08/22 00:24:01;;;;;;;;;;;17.10;99.90;;;;;;5016411;28;20493;-80
2022/08/22 00:26:40;;;;;;;8.82;3.10;;;17.20;99.90;;;;;;5032271;28;19924;-80
2022/08/22 00:29:12;;;;;;;8.30;3.08;;;17.20;99.90;;;;;;5032174;28;20041;-80
2022/08/22 00:32:13;;;;;;;7.15;3.30;;;17.20;99.90;;;;;;5031335;28;20041;-80
2022/08/22 00:35:00;;;;;;;6.38;3.58;;;17.20;99.90;;;;;;5015727;28;20037;-80
2022/08/22 00:37:42;;;;;;;5.32;3.10;;;17.10;99.90;;;;;;5032000;28;20037;-80
2022/08/22 00:40:27;;;;;;;7.80;3.35;;;17.10;99.90;;;;;;5032090;28;20056;-80
2022/08/22 00:43:11;;;;;;;7.10;3.88;;;17.10;99.90;;;;;;5032011;28;20084;-80
2022/08/22 00:45:58;;;;;;;6.88;3.65;;;17.00;99.90;;;;;;5015174;28;20047;-80
2022/08/22 00:48:30;;;;;;;;;;;17.00;99.90;;;;;;5031116;28;20124;-80
2022/08/22 00:51:19;;;;;;;5.78;3.50;;;17.00;99.90;;;;;;5031909;28;19928;-80
2022/08/22 00:54:03;;;;;;;5.75;3.05;;;17.00;99.90;;;;;;5031681;28;20044;-80
2022/08/22 00:56:59;;;;;;;8.32;3.90;;;17.00;99.90;;;;;;5031610;28;20408;-80
2022/08/22 00:59:53;;;;;;;5.78;3.03;;;17.00;99.90;;;;;;5031365;28;20047;-80
2022/08/22 01:03:00;;;;;;;3.10;2.78;;;17.00;99.90;;;;;;5031543;28;20118;-80
2022/08/22 01:05:42;;;;;;;4.05;3.22;;;16.90;99.90;;;;;;5031026;28;20033;-80
2022/08/22 01:08:14;;;;;;;5.80;2.85;;;16.90;99.90;;;;;;5031529;28;20046;-80
2022/08/22 01:11:04;;;;;;;5.53;2.88;;;16.80;99.90;;;;;;5031128;28;20175;-80
2022/08/22 01:13:51;;;;;;;6.22;3.55;;;16.70;99.90;;;;;;5031698;28;20091;-80
2022/08/22 01:16:25;;;;;;;4.10;2.67;;;16.60;99.90;;;;;;5031189;28;20405;-80
2022/08/22 01:19:29;;;;;;;5.47;2.75;;;16.60;99.90;;;;;;5031279;28;20049;-80
2022/08/22 01:22:32;;;;;;;4.63;2.50;;;16.60;99.90;;;;;;5014668;28;20575;-80
2022/08/22 01:25:40;;;;;;;5.68;3.10;;;16.50;99.90;;;;;;5031430;28;20037;-80
2022/08/22 01:28:39;;;;;;;6.57;3.80;;;16.40;99.90;;;;;;5017938;28;20045;-80
2022/08/22 01:31:14;;;;;;;7.40;3.90;;;16.40;99.90;;;;;;5031211;28;20052;-80
2022/08/22 01:34:04;;;;;;;5.85;3.42;;;16.30;99.90;;;;;;5031265;28;20049;-80
2022/08/22 01:37:00;;;;;;;6.93;3.80;;;16.30;99.90;;;;;;5031048;28;20120;-80
2022/08/22 01:39:45;;;;;;;8.13;3.95;;;16.30;99.90;;;;;;5030867;28;20397;-80
2022/08/22 01:42:53;;;;;;;9.13;4.50;;;16.30;99.90;;;;;;5031051;28;20038;-80
2022/08/22 01:45:28;;;;;;;7.57;5.40;;;16.40;99.90;;;;;;5031314;28;20049;-80
2022/08/22 01:48:05;;;;;;;7.53;4.78;;;16.30;99.90;;;;;;5031188;28;20291;-80
2022/08/22 01:50:44;;;;;;;5.82;4.40;;;16.30;99.90;;;;;;5030927;28;20564;-80
2022/08/22 01:53:23;;;;;;;5.93;4.10;;;16.30;99.90;;;;;;5031241;28;20124;-80
2022/08/22 01:56:18;;;;;;;7.07;4.30;;;16.20;99.90;;;;;;5030455;28;20063;-80
2022/08/22 01:59:02;;;;;;;11.40;4.47;;;16.30;99.90;;;;;;5030747;28;20047;-80
2022/08/22 02:01:40;;;;;;;5.35;4.20;;;16.20;99.90;;;;;;5033877;28;20052;-80
2022/08/22 02:04:13;;;;;;;7.20;4.10;;;16.20;99.90;;;;;;5034975;28;20384;-80
2022/08/22 02:07:02;;;;;;;8.50;5.68;;;16.10;99.90;;;;;;5034490;28;20042;-80
2022/08/22 02:09:41;;;;;;;12.18;6.00;;;16.00;99.90;;;;;;5034804;28;20042;-80
2022/08/22 02:12:10;;;;;;;10.40;6.55;;;16.00;99.90;;;;;;5015008;28;20045;-80
2022/08/22 02:15:14;;;;;;;9.45;5.68;;;15.90;99.90;;;;;;5014923;28;20050;-80
2022/08/22 02:18:05;;;;;;;11.88;5.50;;;15.90;99.90;;;;;;5014315;28;20148;-80
2022/08/22 02:20:55;;;;;;;9.55;5.35;;;15.90;99.90;;;;;;4998409;28;20195;-80
2022/08/22 02:23:31;;;;;;;9.48;5.72;;;15.90;99.90;;;;;;5014671;28;20042;-81
2022/08/22 02:26:00;;;;;;;9.77;4.88;;;15.90;99.90;;;;;;5014809;28;20042;-80
2022/08/22 02:28:38;;;;;;;8.75;5.20;;;15.90;99.90;;;;;;5024186;28;20374;-80
2022/08/22 02:31:13;;;;;;;9.30;4.65;;;15.80;99.90;;;;;;5034456;28;20046;-80
2022/08/22 02:33:45;;;;;;;9.30;5.10;;;15.80;99.90;;;;;;5018366;28;20115;-80
2022/08/22 02:36:42;;;;;;;9.07;4.72;;;15.80;99.90;;;;;;5018096;28;20045;-80
2022/08/22 02:39:42;;;;;;;8.88;4.78;;;15.80;99.90;;;;;;5034282;28;20405;-80
2022/08/22 02:42:32;;;;;;;10.35;4.70;;;15.80;99.90;;;;;;5034294;28;20081;-80
2022/08/22 02:45:36;;;;;;;10.40;5.80;;;15.80;99.90;;;;;;5017614;28;20041;-80
2022/08/22 02:48:10;;;;;;;8.73;5.03;;;15.70;99.90;;;;;;5034189;28;20068;-80
2022/08/22 02:51:17;;;;;;;8.38;5.22;;;15.80;99.90;;;;;;5033734;28;20045;-80
2022/08/22 02:53:59;;;;;;;8.98;5.13;;;15.80;99.90;;;;;;5017425;28;20037;-80
2022/08/22 02:56:44;;;;;;;11.15;5.20;;;15.80;99.90;;;;;;5033858;28;20049;-80
2022/08/22 02:59:31;;;;;;;7.32;5.00;;;15.70;99.90;;;;;;5033979;28;20048;-80
2022/08/22 03:02:17;;;;;;;12.10;6.30;;;15.80;99.90;;;;;;5033877;28;20467;-80
2022/08/22 03:04:49;;;;;;;15.63;6.10;;;15.70;99.90;;;;;;5033720;28;20451;-80
2022/08/22 03:07:21;;;;;;;8.80;5.38;;;15.80;99.90;;;;;;5033292;28;20106;-80
2022/08/22 03:09:49;;;;;;;10.45;6.45;;;15.80;99.90;;;;;;5033402;28;20065;-80
2022/08/22 03:12:40;;;;;;;10.73;6.03;;;15.70;99.90;;;;;;5033066;28;20045;-80
2022/08/22 03:15:19;;;;;;;6.40;4.95;;;15.70;99.90;;;;;;5033551;28;20037;-80
2022/08/22 03:17:56;;;;;;;8.20;4.68;;;15.60;99.90;;;;;;5033937;28;20488;-80
2022/08/22 03:20:42;;;;;;;6.82;4.63;;;15.70;99.90;;;;;;5017369;28;20064;-80
2022/08/22 03:23:31;;;;;;;8.43;4.80;;;15.60;99.90;;;;;;5017950;28;20045;-81
2022/08/22 03:26:21;;;;;;;10.95;5.85;;;15.60;99.90;;;;;;5013465;28;20042;-85
2022/08/22 03:29:11;;;;;;;6.45;4.50;;;15.60;99.90;;;;;;5013423;28;20088;-80
2022/08/22 03:31:47;;;;;;;9.75;5.47;;;15.70;99.90;;;;;;5013114;28;20046;-80
2022/08/22 03:34:32;;;;;;;9.57;4.85;;;15.70;99.90;;;;;;4998083;28;20046;-86
2022/08/22 03:37:14;;;;;;;6.43;4.70;;;15.60;99.90;;;;;;5013730;28;20505;-81
2022/08/22 03:39:55;;;;;;;8.23;5.22;;;15.60;99.90;;;;;;5013276;28;20092;-81
2022/08/22 03:42:35;;;;;;;8.15;5.43;;;15.60;99.90;;;;;;5013899;28;20042;-79
2022/08/22 03:45:21;;;;;;;8.50;6.03;;;15.60;99.90;;;;;;5024565;28;20033;-79
2022/08/22 03:48:25;;;;;;;6.47;5.30;;;15.60;99.90;;;;;;5032806;28;20045;-79
2022/08/22 03:51:17;;;;;;;7.35;4.55;;;15.60;99.90;;;;;;5033016;28;20087;-79
2022/08/22 03:54:30;;;;;;;10.07;4.10;;;15.50;99.90;;;;;;5033179;28;20038;-79
2022/08/22 03:56:58;;;;;;;16.10;3.78;;;15.40;99.90;;;;;;5032882;28;20486;-79
2022/08/22 03:59:30;;;;;;;20.35;2.63;;;15.40;99.90;;;;;;5032966;28;20485;-79
2022/08/22 04:02:35;;;;;;;35.25;3.08;;;15.20;99.90;;;;;;5032456;28;20040;-79
2022/08/22 04:05:32;;;;;;;3.72;1.55;;;15.20;99.90;;;;;;5032553;28;20041;-79
2022/08/22 04:08:30;;;;;;;13.05;1.55;;;15.10;99.90;;;;;;5016045;28;20045;-79
2022/08/22 04:11:20;;;;;;;2.28;1.20;;;15.10;99.90;;;;;;5032562;28;20417;-79
2022/08/22 04:14:10;;;;;;;3.38;1.40;;;15.00;99.90;;;;;;5000762;28;20041;-79
2022/08/22 04:16:52;;;;;;;1.80;1.50;;;15.00;99.90;;;;;;5032533;28;20045;-79
2022/08/22 04:19:58;;;;;;;1.83;1.23;;;15.00;99.90;;;;;;5015723;28;20541;-79
2022/08/22 04:22:32;;;;;;;2.85;1.58;;;15.00;99.90;;;;;;5032062;28;20397;-79
2022/08/22 04:25:30;;;;;;;3.10;2.00;;;15.10;99.90;;;;;;5032148;28;20040;-79
2022/08/22 04:28:01;;;;;;;2.35;1.85;;;15.00;99.90;;;;;;5032453;28;20493;-79
2022/08/22 04:30:43;;;;;;;1.38;1.25;;;15.00;99.90;;;;;;5031959;28;20099;-79
2022/08/22 04:33:18;;;;;;;10.00;1.33;;;15.00;99.90;;;;;;5015751;28;20056;-79
2022/08/22 04:36:00;;;;;;;2.53;1.30;;;14.90;99.90;;;;;;5031740;28;20049;-79
2022/08/22 04:38:46;;;;;;;3.58;1.05;;;14.90;99.90;;;;;;5032368;28;20516;-79
2022/08/22 04:41:40;;;;;;;1.55;1.02;;;14.80;99.90;;;;;;5021513;28;20080;-79
2022/08/22 04:44:32;;;;;;;3.25;1.10;;;14.80;99.90;;;;;;5015547;28;20079;-79
2022/08/22 04:47:02;;;;;;;2.80;0.90;;;14.80;99.90;;;;;;5022622;28;20155;-79
2022/08/22 04:49:38;;;;;;;1.30;1.20;;;14.80;99.90;;;;;;5015315;28;20103;-79
2022/08/22 04:52:28;;;;;;;1.00;0.75;;;14.80;99.90;;;;;;5012385;28;20042;-79
2022/08/22 04:55:16;;;;;;;0.90;0.80;;;14.70;99.90;;;;;;4995648;28;20513;-79
2022/08/22 04:58:03;;;;;;;0.88;0.85;;;14.70;99.90;;;;;;5012109;28;20053;-79
2022/08/22 05:01:01;;;;;;;1.55;0.98;;;14.70;99.90;;;;;;4995215;28;20076;-80
2022/08/22 05:03:30;;;;;;;0.93;0.70;;;14.70;99.90;;;;;;5011821;28;20382;-79
2022/08/22 05:05:58;;;;;;;0.80;0.70;;;14.70;99.90;;;;;;5022428;28;20068;-79
2022/08/22 05:08:29;;;;;;;0.88;0.80;;;14.70;99.90;;;;;;5031710;28;20041;-79
2022/08/22 05:10:56;;;;;;;1.15;0.85;;;14.70;99.90;;;;;;5031361;28;20072;-79
2022/08/22 05:13:32;;;;;;;0.82;0.70;;;14.70;99.90;;;;;;4998802;28;20033;-79
2022/08/22 05:16:02;;;;;;;1.10;0.90;;;14.70;99.90;;;;;;5031376;28;20037;-80
2022/08/22 05:18:33;;;;;;;1.50;1.10;;;14.80;99.90;;;;;;5031224;28;20049;-79
2022/08/22 05:21:03;;;;;;;1.92;1.33;;;14.80;99.90;;;;;;5031658;28;20504;-79
2022/08/22 05:24:04;;;;;;;1.42;0.88;;;14.90;99.90;;;;;;5030829;28;20087;-79
2022/08/22 05:26:39;;;;;;;0.80;0.80;;;14.90;99.90;;;;;;5010181;28;20501;-79
2022/08/22 05:29:08;;;;;;;1.45;0.90;;;14.90;99.90;;;;;;5031423;28;20053;-79
2022/08/22 05:31:40;;;;;;;1.00;0.90;;;14.90;99.90;;;;;;5014559;28;20444;-79
2022/08/22 05:34:13;;;;;;;0.80;0.80;;;14.90;99.90;;;;;;5031173;28;20091;-79
2022/08/22 05:36:54;;;;;;;1.27;0.57;;;14.80;99.90;;;;;;5031430;28;20045;-79
2022/08/22 05:39:23;;;;;;;0.93;0.80;;;14.90;99.90;;;;;;5014539;28;20077;-79
2022/08/22 05:41:52;;;;;;;1.15;0.68;;;14.90;99.90;;;;;;5031075;28;20319;-79
2022/08/22 05:44:27;;;;;;;1.02;0.60;;;14.90;99.90;;;;;;5031095;28;20072;-79
2022/08/22 05:47:13;;;;;;;0.57;0.57;;;15.00;99.90;;;;;;5031346;28;20042;-80
2022/08/22 05:49:57;;;;;;;0.60;0.47;;;15.00;99.90;;;;;;5030927;28;20046;-79
2022/08/22 05:52:32;;;;;;;0.60;0.60;;;15.00;99.90;;;;;;5014853;28;20069;-80
2022/08/22 05:55:28;;;;;;;1.50;0.65;;;15.00;99.90;;;;;;5030273;28;20055;-80
2022/08/22 05:58:38;;;;;;;1.58;0.50;;;15.10;99.90;;;;;;5031286;28;20038;-80
2022/08/22 06:01:19;;;;;;;0.63;0.50;;;15.20;99.90;;;;;;4974540;28;20514;-79
2022/08/22 06:04:06;;;;;;;0.60;0.60;;;15.30;99.90;;;;;;4974203;28;20049;-79
2022/08/22 06:06:41;;;;;;;;;;;15.40;99.90;;;;;;5016771;28;20060;-80
2022/08/22 06:09:24;;;;;;;0.95;0.68;;;15.60;99.90;;;;;;5030716;28;19917;-80
2022/08/22 06:12:13;;;;;;;1.98;0.70;;;15.70;99.90;;;;;;5030730;28;20055;-80
2022/08/22 06:15:07;;;;;;;3.00;0.60;;;15.90;99.90;;;;;;5010874;28;20069;-80
2022/08/22 06:17:42;;;;;;;0.93;0.60;;;16.10;99.90;;;;;;5010690;28;20050;-79
2022/08/22 06:20:17;;;;;;;2.33;0.68;;;16.30;99.90;;;;;;5011248;28;20449;-79
2022/08/22 06:22:50;;;;;;;1.50;0.80;;;16.50;99.90;;;;;;5011451;28;20490;-80
2022/08/22 06:25:23;;;;;;;1.73;0.80;;;16.70;99.90;;;;;;5011053;28;20045;-80
2022/08/22 06:27:51;;;;;;;1.45;1.02;;;16.80;99.90;;;;;;5011064;28;20034;-80
2022/08/22 06:30:18;;;;;;;1.92;0.90;;;16.90;99.90;;;;;;5032398;28;20066;-79
2022/08/22 06:32:48;;;;;;;1.67;1.08;;;17.00;99.90;;;;;;5030458;28;20080;-80
2022/08/22 06:38:56;;;;;;;2.15;1.38;;;17.20;99.90;;;;;;5030630;28;20049;-79
2022/08/22 06:41:26;;;;;;;6.93;2.78;;;17.40;99.90;;;;;;5030464;28;20045;-80
2022/08/22 06:43:54;;;;;;;13.10;3.75;;;17.40;99.90;;;;;;5030731;28;20081;-80
2022/08/22 06:46:23;;;;;;;9.98;3.80;;;17.50;99.90;;;;;;5014550;28;20059;-80
2022/08/22 06:48:50;;;;;;;13.40;3.75;;;17.60;99.90;;;;;;5033921;28;20056;-80
2022/08/22 06:51:19;;;;;;;10.02;4.05;;;17.70;99.90;;;;;;5017695;28;20140;-80
2022/08/22 06:53:48;;;;;;;9.35;3.78;;;17.80;99.90;;;;;;5033846;28;20067;-80
2022/08/22 06:56:28;;;;;;;11.35;4.28;;;17.90;99.90;;;;;;5033814;28;20560;-80
2022/08/22 06:58:58;;;;;;;8.60;3.40;;;17.90;99.90;;;;;;5034076;28;20046;-80
2022/08/22 07:01:29;;;;;;;8.32;3.30;;;18.00;99.90;;;;;;5033643;28;20083;-80
2022/08/22 07:04:03;;;;;;;10.43;3.50;;;18.10;99.90;;;;;;5033919;28;20212;-80
2022/08/22 07:06:48;;;;;;;9.77;3.45;;;18.20;99.90;;;;;;5033974;28;20080;-80
2022/08/22 07:09:36;;;;;;;12.65;3.88;;;18.20;99.90;;;;;;5033886;28;20046;-80
2022/08/22 07:12:25;;;;;;;10.10;3.60;;;18.30;99.90;;;;;;5017455;28;20053;-80
2022/08/22 07:14:53;;;;;;;13.05;3.67;;;18.30;99.90;;;;;;5033603;28;20103;-80
2022/08/22 07:17:26;;;;;;;10.43;3.35;;;18.40;99.90;;;;;;5033824;28;20042;-80
2022/08/22 07:20:30;;;;;;;9.07;3.17;;;18.50;99.90;;;;;;5033494;28;20505;-80
2022/08/22 07:23:00;;;;;;;10.50;3.63;;;18.50;99.90;;;;;;5023418;28;20061;-80
2022/08/22 07:25:28;;;;;;;8.32;2.95;;;18.60;99.90;;;;;;5033562;28;20080;-80
2022/08/22 07:27:56;;;;;;;6.72;3.15;;;18.60;99.90;;;;;;5017098;28;20565;-80
2022/08/22 07:30:24;;;;;;;10.98;2.75;;;18.60;99.90;;;;;;5033370;28;20133;-80
2022/08/22 07:33:00;;;;;;;10.02;3.40;;;18.70;99.90;;;;;;5033181;28;20046;-80
2022/08/22 07:35:32;;;;;;;8.90;3.00;;;18.70;99.90;;;;;;5032746;28;20048;-80
2022/08/22 07:38:08;;;;;;;9.93;3.17;;;18.70;99.90;;;;;;5033350;28;20041;-80
2022/08/22 07:41:01;;;;;;;9.30;3.03;;;18.80;99.90;;;;;;5033022;28;20045;-80
2022/08/22 07:43:49;;;;;;;11.88;3.42;;;18.90;99.90;;;;;;5033423;28;20512;-80
2022/08/22 07:46:36;;;;;;;9.90;3.00;;;18.90;99.90;;;;;;5033096;28;20095;-80
2022/08/22 07:49:14;;;;;;;9.85;2.90;;;19.00;99.90;;;;;;5016577;28;20049;-80
2022/08/22 07:51:45;;;;;;;6.47;2.90;;;19.10;99.90;;;;;;5032724;28;20564;-80
2022/08/22 07:54:21;;;;;;;12.13;2.83;;;19.30;99.90;;;;;;5032896;28;20051;-80
2022/08/22 07:56:56;;;;;;;7.28;2.55;;;19.50;99.90;;;;;;5016174;28;20060;-79
2022/08/22 07:59:24;;;;;;;13.73;3.60;;;19.60;99.90;;;;;;5032024;28;20060;-80
2022/08/22 08:01:53;;;;;;;13.40;3.67;;;19.70;99.90;;;;;;5016969;28;20057;-80
2022/08/22 08:04:24;;;;;;;9.18;2.70;;;20.00;99.90;;;;;;5032788;28;20084;-80
2022/08/22 08:06:53;;;;;;;10.75;2.92;;;20.20;99.90;;;;;;5033061;28;20052;-80
2022/08/22 08:09:20;;;;;;;7.82;2.40;;;20.40;99.90;;;;;;5032755;28;20049;-80
2022/08/22 08:11:50;;;;;;;8.52;2.63;;;20.50;99.90;;;;;;5032341;28;20072;-80
2022/08/22 08:14:16;;;;;;;9.95;2.60;;;20.50;99.90;;;;;;5032000;28;20121;-80
2022/08/22 08:17:29;;;;;;;9.40;2.67;;;20.50;99.90;;;;;;5032451;28;20044;-79
2022/08/22 08:19:56;;;;;;;6.75;2.20;;;20.50;99.90;;;;;;5032192;28;20053;-80
2022/08/22 08:22:25;;;;;;;7.78;2.38;;;20.50;99.90;;;;;;5015807;28;20041;-80
2022/08/22 08:24:56;;;;;;;7.78;2.35;;;20.60;99.90;;;;;;5032161;28;20110;-80
2022/08/22 08:30:42;;;;;;;10.32;3.10;;;20.70;99.90;;;;;;5032167;28;20080;-80
2022/08/22 08:33:13;;;;;;;7.85;2.00;;;20.70;99.90;;;;;;5015295;28;20060;-80
2022/08/22 08:35:43;;;;;;;7.78;1.95;;;20.80;99.90;;;;;;5032444;28;20473;-80
2022/08/22 08:38:17;;;;;;;8.80;2.38;;;20.80;99.90;;;;;;5032071;28;20045;-80
2022/08/22 08:40:55;;;;;;;7.70;2.40;;;20.90;99.90;;;;;;5015405;28;20085;-80
2022/08/22 08:43:39;;;;;;;6.43;2.20;;;20.80;99.90;;;;;;5031963;28;20041;-80
2022/08/22 08:46:24;;;;;;;6.57;2.10;;;20.80;99.90;;;;;;5032411;28;20474;-80
2022/08/22 08:49:08;;;;;;;8.85;2.35;;;20.90;99.90;;;;;;5031628;28;20045;-80
2022/08/22 08:52:11;;;;;;;7.53;2.20;;;21.00;99.90;;;;;;5031448;28;20081;-80
2022/08/22 08:54:50;;;;;;;11.35;2.50;;;21.10;99.90;;;;;;5031436;28;20132;-80
2022/08/22 08:57:44;;;;;;;8.13;2.30;;;21.20;99.90;;;;;;5031632;28;20044;-80
2022/08/22 09:00:41;;;;;;;8.95;2.30;;;21.30;99.90;;;;;;5031607;28;20042;-81
2022/08/22 09:03:31;;;;;;;9.88;2.53;;;21.40;99.90;;;;;;5015270;28;20049;-80
2022/08/22 09:06:25;;;;;;;7.32;2.75;;;21.50;99.90;;;;;;5031278;28;20055;-80
2022/08/22 09:09:09;;;;;;;13.35;2.67;;;21.70;99.90;;;;;;5014742;28;20061;-81
2022/08/22 09:11:53;;;;;;;9.65;2.28;;;21.60;99.90;;;;;;5031457;28;20120;-80
2022/08/22 09:14:33;;;;;;;8.48;2.50;;;21.70;99.90;;;;;;5014834;28;20041;-80
2022/08/22 09:17:13;;;;;;;7.18;2.45;;;21.90;99.90;;;;;;5031451;28;20095;-80
2022/08/22 09:20:10;;;;;;;9.18;2.45;;;22.20;99.90;;;;;;5031064;28;20049;-81
2022/08/22 09:23:00;;;;;;;8.77;2.50;;;22.70;99.90;;;;;;5015125;28;20041;-81
2022/08/22 09:25:42;;;;;;;7.53;2.50;;;23.50;99.90;;;;;;5031245;28;20045;-81
2022/08/22 09:28:19;;;;;;;6.43;2.20;;;23.70;99.90;;;;;;5031267;28;20477;-81
2022/08/22 09:31:16;;;;;;;9.52;2.25;;;24.30;99.90;;;;;;5030987;28;20053;-81
2022/08/22 09:33:45;;;;;;;7.50;2.43;;;24.90;99.90;;;;;;5015300;28;20052;-81
2022/08/22 09:36:20;;;;;;;9.52;2.60;;;25.40;99.90;;;;;;5030814;28;20041;-81
2022/08/22 09:39:01;;;;;;;4.80;1.70;;;25.60;99.90;;;;;;5030946;28;20045;-81
2022/08/22 09:41:40;;;;;;;9.38;2.35;;;25.80;99.90;;;;;;5031055;28;20385;-81
2022/08/22 09:44:44;;;;;;;7.47;2.00;;;26.10;99.90;;;;;;5031208;28;20056;-81
2022/08/22 09:47:32;;;;;;;6.60;1.70;;;26.20;99.90;;;;;;5030924;28;20044;-81
2022/08/22 09:50:00;;;;;;;8.57;2.03;;;26.40;99.90;;;;;;5030992;28;20493;-81
2022/08/22 09:52:50;;;;;;;8.23;1.77;;;26.70;99.90;;;;;;5030953;28;20052;-81
2022/08/22 09:55:33;;;;;;;7.28;1.90;;;26.90;99.90;;;;;;5014396;28;20062;-81
2022/08/22 09:58:13;;;;;;;9.07;2.05;;;27.10;99.90;;;;;;5031073;28;20501;-82
2022/08/22 10:00:50;;;;;;;10.23;2.53;;;27.50;99.90;;;;;;5030823;28;20457;-82
2022/08/22 10:03:27;;;;;;;7.75;2.10;;;27.70;99.50;;;;;;5030681;28;20045;-82
2022/08/22 10:06:03;;;;;;;6.88;1.92;;;27.80;99.90;;;;;;5030690;28;20034;-82
2022/08/22 10:08:29;;;;;;;;;;;28.10;99.20;;;;;;5031072;28;20400;-81
2022/08/22 10:10:57;;;;;;;5.50;1.50;;;28.00;99.50;;;;;;5014196;28;19921;-82
2022/08/22 10:13:49;;;;;;;6.53;2.15;;;28.20;99.00;;;;;;5031096;28;20045;-82
2022/08/22 10:16:35;;;;;;;8.63;1.73;;;28.30;98.50;;;;;;5030374;28;20073;-82
2022/08/22 10:19:33;;;;;;;6.65;1.70;;;28.30;98.90;;;;;;5030724;28;20130;-82
2022/08/22 10:22:33;;;;;;;6.15;1.90;;;28.60;98.30;;;;;;5028339;28;20041;-82
2022/08/22 10:25:34;;;;;;;8.65;2.08;;;28.90;97.70;;;;;;5034582;28;20073;-82
2022/08/22 10:28:18;;;;;;;6.45;1.80;;;29.00;97.30;;;;;;5034760;28;20481;-82
2022/08/22 10:30:43;;;;;;;5.03;2.03;;;29.40;96.80;;;;;;5034152;28;20037;-82
2022/08/22 10:33:22;;;;;;;10.50;2.30;;;29.80;96.90;;;;;;5034464;28;20041;-82
2022/08/22 10:36:09;;;;;;;4.95;1.60;;;29.80;96.20;;;;;;5034193;28;20048;-82
2022/08/22 10:38:56;;;;;;;5.45;1.55;;;30.10;95.90;;;;;;5017303;28;20046;-82
2022/08/22 10:41:34;;;;;;;7.10;1.80;;;30.30;95.60;;;;;;5033572;28;20041;-82
2022/08/22 10:44:20;;;;;;;6.72;1.50;;;30.30;95.40;;;;;;5033945;28;20049;-82
2022/08/22 10:46:55;;;;;;;6.13;1.60;;;30.00;95.70;;;;;;5034329;28;20485;-82
2022/08/22 10:49:36;;;;;;;5.95;1.70;;;29.80;95.20;;;;;;5033772;28;20049;-82
2022/08/22 10:52:19;;;;;;;7.60;1.77;;;29.50;95.20;;;;;;5017386;28;20492;-82
2022/08/22 10:54:55;;;;;;;6.95;1.92;;;30.00;95.80;;;;;;5033660;28;20096;-82
2022/08/22 10:57:43;;;;;;;6.78;1.88;;;30.30;94.80;;;;;;5033452;28;20455;-83
2022/08/22 11:00:17;;;;;;;5.57;1.60;;;30.60;95.70;;;;;;5033615;28;20090;-83
2022/08/22 11:03:07;;;;;;;5.72;1.33;;;30.80;95.00;;;;;;5033951;28;20126;-83
2022/08/22 11:05:44;;;;;;;5.38;1.70;;;31.00;95.20;;;;;;5017034;28;20041;-83
2022/08/22 11:08:19;;;;;;;7.80;1.65;;;31.10;95.00;;;;;;5033598;28;20045;-82
2022/08/22 11:11:12;;;;;;;6.75;1.50;;;30.40;94.30;;;;;;5033376;28;20095;-82
2022/08/22 11:13:47;;;;;;;7.15;1.42;;;30.20;94.50;;;;;;5033028;28;20052;-82
2022/08/22 11:16:27;;;;;;;4.10;1.40;;;29.70;95.20;;;;;;5033624;28;20120;-82
2022/08/22 11:19:11;;;;;;;5.90;1.60;;;29.40;95.30;;;;;;5033291;28;20366;-82
2022/08/22 11:22:09;;;;;;;7.85;1.50;;;29.40;95.50;;;;;;5032960;28;20125;-82
2022/08/22 11:24:38;;;;;;;5.65;1.55;;;29.50;94.80;;;;;;5032971;28;20045;-83
2022/08/22 11:27:18;;;;;;;5.53;1.63;;;30.20;95.50;;;;;;5032883;28;20148;-83
2022/08/22 11:29:56;;;;;;;5.93;1.60;;;30.30;94.80;;;;;;5032406;28;20044;-83
2022/08/22 11:32:28;;;;;;;5.55;1.40;;;30.60;94.90;;;;;;5032415;28;20041;-82
2022/08/22 11:35:20;;;;;;;4.88;1.77;;;31.00;95.20;;;;;;5016465;28;20041;-83
2022/08/22 11:38:23;;;;;;;7.57;2.17;;;31.20;94.60;;;;;;5016536;28;20498;-83
2022/08/22 11:41:08;;;;;;;6.15;2.08;;;31.30;93.70;;;;;;5016517;28;20084;-83
2022/08/22 11:43:49;;;;;;;5.53;1.48;;;31.20;93.10;;;;;;5016083;28;20041;-83
2022/08/22 11:46:24;;;;;;;6.28;1.52;;;31.50;93.20;;;;;;5032327;28;20052;-83
2022/08/22 11:49:27;;;;;;;6.50;1.60;;;31.40;93.30;;;;;;5032672;28;20401;-83
2022/08/22 11:52:13;;;;;;;4.70;1.40;;;31.30;93.90;;;;;;5032210;28;20049;-83
2022/08/22 11:54:54;;;;;;;4.60;1.40;;;31.60;93.60;;;;;;5032004;28;20053;-83
2022/08/22 11:57:32;;;;;;;4.10;1.33;;;31.50;93.80;;;;;;5016096;28;20042;-83
2022/08/22 12:00:19;;;;;;;7.00;2.08;;;32.00;93.80;;;;;;5032733;28;20112;-83
2022/08/22 12:03:00;;;;;;;7.18;1.75;;;31.60;93.20;;;;;;5032362;28;20034;-83
2022/08/22 12:05:38;;;;;;;5.43;1.60;;;31.60;93.10;;;;;;5032262;28;20037;-83
2022/08/22 12:08:22;;;;;;;6.80;1.58;;;31.60;93.30;;;;;;5032492;28;20069;-83
2022/08/22 12:11:11;;;;;;;6.70;1.90;;;31.60;93.00;;;;;;5032271;28;20087;-83
2022/08/22 12:13:54;;;;;;;5.38;1.27;;;31.50;92.70;;;;;;5015733;28;20038;-83
2022/08/22 12:16:31;;;;;;;5.95;1.50;;;31.80;92.90;;;;;;5032869;28;20562;-83
2022/08/22 12:18:56;;;;;;;4.85;1.40;;;31.90;92.70;;;;;;5032732;28;20045;-83
2022/08/22 12:21:41;;;;;;;5.13;1.20;;;32.20;92.80;;;;;;5031832;28;20049;-83
2022/08/22 12:24:17;;;;;;;6.68;1.60;;;32.20;92.50;;;;;;5032272;28;20041;-83
2022/08/22 12:27:26;;;;;;;4.32;1.38;;;32.50;92.10;;;;;;5032050;28;20132;-83
2022/08/22 12:30:01;;;;;;;5.32;1.80;;;32.50;92.60;;;;;;5032024;28;20045;-83
2022/08/22 12:32:54;;;;;;;5.60;1.52;;;32.10;92.30;;;;;;5032004;28;20044;-83
2022/08/22 12:35:49;;;;;;;4.95;1.63;;;31.40;92.80;;;;;;5015556;28;20056;-83
2022/08/22 12:38:21;;;;;;;7.25;1.73;;;30.80;93.30;;;;;;5031914;28;20405;-83
2022/08/22 12:40:55;;;;;;;6.88;1.70;;;30.90;93.40;;;;;;5031884;28;20458;-83
2022/08/22 12:43:39;;;;;;;7.32;2.00;;;30.90;93.60;;;;;;5031670;28;20048;-83
2022/08/22 12:46:39;;;;;;;5.28;1.40;;;30.90;93.20;;;;;;5015440;28;20508;-83
2022/08/22 12:49:10;;;;;;;8.98;1.73;;;31.30;93.50;;;;;;5015327;28;20041;-83
2022/08/22 12:52:04;;;;;;;4.82;1.65;;;31.20;93.10;;;;;;5031668;28;20042;-83
2022/08/22 12:54:43;;;;;;;6.07;1.48;;;31.10;93.40;;;;;;5031723;28;20088;-83
2022/08/22 12:57:30;;;;;;;4.28;1.50;;;31.30;92.80;;;;;;5031989;28;20045;-83
2022/08/22 13:00:27;;;;;;;5.60;1.80;;;31.30;93.20;;;;;;5031765;28;20038;-83
2022/08/22 13:02:54;;;;;;;4.55;1.40;;;31.60;92.80;;;;;;5025275;28;20158;-83
2022/08/22 13:05:24;;;;;;;7.05;1.58;;;31.80;92.70;;;;;;5011803;28;20053;-83
2022/08/22 13:08:01;;;;;;;5.63;1.63;;;31.80;92.60;;;;;;5011757;28;20042;-83
2022/08/22 13:10:45;;;;;;;6.32;1.65;;;31.70;92.70;;;;;;5011721;28;20050;-83
2022/08/22 13:13:42;;;;;;;4.75;1.40;;;31.90;92.50;;;;;;5011564;28;20038;-83
2022/08/22 13:16:16;;;;;;;5.65;1.40;;;31.40;91.60;;;;;;5011573;28;20049;-83
2022/08/22 13:18:47;;;;;;;5.15;1.67;;;31.60;92.40;;;;;;5011420;28;20095;-83
2022/08/22 13:21:17;;;;;;;3.88;1.45;;;31.50;91.90;;;;;;5027194;28;20041;-83
2022/08/22 13:23:49;;;;;;;3.83;1.35;;;31.40;92.00;;;;;;5014400;28;20041;-83
2022/08/22 13:26:17;;;;;;;3.90;1.30;;;31.60;92.20;;;;;;5030890;28;20051;-83
2022/08/22 13:29:01;;;;;;;4.03;1.42;;;31.30;92.20;;;;;;5030756;28;20080;-83
2022/08/22 13:31:34;;;;;;;6.63;1.60;;;31.20;92.30;;;;;;5014425;28;20061;-83
2022/08/22 13:34:01;;;;;;;5.57;1.15;;;31.00;91.70;;;;;;5030455;28;20045;-83
2022/08/22 13:36:30;;;;;;;6.00;1.42;;;30.80;92.10;;;;;;5014314;28;20515;-83
2022/08/22 13:39:26;;;;;;;5.07;1.15;;;31.00;92.30;;;;;;5030821;28;20072;-83
2022/08/22 13:41:55;;;;;;;5.80;1.40;;;31.20;92.20;;;;;;5030197;28;20057;-83
2022/08/22 13:44:28;;;;;;;4.78;1.20;;;31.00;92.10;;;;;;5014395;28;20501;-83
2022/08/22 13:47:01;;;;;;;4.57;1.50;;;30.20;91.70;;;;;;5030728;28;20073;-83
2022/08/22 13:49:33;;;;;;;4.15;1.35;;;30.00;92.00;;;;;;5030839;28;20045;-83
2022/08/22 13:52:14;;;;;;;5.32;1.35;;;29.90;92.10;;;;;;5030737;28;20076;-83
2022/08/22 13:55:08;;;;;;;3.80;1.00;;;29.50;92.60;;;;;;5010835;28;20048;-82
2022/08/22 13:58:18;;;;;;;5.18;1.30;;;29.30;93.10;;;;;;5014806;28;20034;-82
2022/08/22 14:01:22;;;;;;;5.75;1.10;;;29.20;92.80;;;;;;5014099;28;20088;-82
2022/08/22 14:03:54;;;;;;;3.28;1.13;;;29.10;92.70;;;;;;5017214;28;20543;-84
2022/08/22 14:06:25;;;;;;;5.40;1.40;;;29.00;93.20;;;;;;5000855;28;20060;-84
2022/08/22 14:08:56;;;;;;;3.63;1.10;;;28.90;92.70;;;;;;5032318;28;20060;-85